BAW62V MDPP-EGCC
Flight info
| Callsign | BAW62V |
|---|---|
| Flight time | N/A |
| Altitude | 35000 |
| Route | LERED3C LERED L464 RNTRY DCT MNDEZ M594 MLLER/M081F350 DCT BRKZZ DCT 31N060W 39N050W 44N040W 49N030W 51N020W DCT LIMRI/N0462F350 DCT XETBO DCT BOFUM Q37 MALUD |
| Aircraft | B772/H-SDE2E3FGHIJ5LORVWXY/LB1D1 |
Departure
| Time | N/A |
|---|---|
| Airport | Gregorio Luperon International Airport (MDPP) |
Arrival
| Time | 2026-05-05 08:38 |
|---|---|
| Airport | Manchester Airport (EGCC) |
| Time | Latitude | Longitude | Altitude | Speed | Heading |
|---|---|---|---|---|---|
| 2026-05-05 08:06 | 53.44226 | -6.16368 | 39061 ft | 466 kts | 75° |
| 2026-05-05 08:07 | 53.45790 | -6.05624 | 38613 ft | 484 kts | 75° |
| 2026-05-05 08:07 | 53.46586 | -6.00117 | 38191 ft | 488 kts | 75° |
| 2026-05-05 08:07 | 53.47380 | -5.94603 | 37746 ft | 483 kts | 75° |
| 2026-05-05 08:08 | 53.48161 | -5.89147 | 37297 ft | 478 kts | 75° |
| 2026-05-05 08:08 | 53.48937 | -5.83719 | 36855 ft | 475 kts | 75° |
| 2026-05-05 08:08 | 53.49704 | -5.78339 | 36412 ft | 473 kts | 75° |
| 2026-05-05 08:08 | 53.50469 | -5.72957 | 35967 ft | 471 kts | 75° |
| 2026-05-05 08:09 | 53.51225 | -5.67627 | 35535 ft | 476 kts | 75° |
| 2026-05-05 08:09 | 53.51999 | -5.62145 | 35098 ft | 480 kts | 75° |
| 2026-05-05 08:09 | 53.52766 | -5.56680 | 34654 ft | 482 kts | 76° |
| 2026-05-05 08:09 | 53.53360 | -5.51120 | 34202 ft | 483 kts | 82° |
| 2026-05-05 08:10 | 53.53634 | -5.45508 | 33752 ft | 482 kts | 87° |
| 2026-05-05 08:10 | 53.53560 | -5.39855 | 33306 ft | 481 kts | 91° |
| 2026-05-05 08:10 | 53.53385 | -5.34258 | 32826 ft | 478 kts | 92° |
| 2026-05-05 08:10 | 53.53216 | -5.28686 | 32325 ft | 473 kts | 91° |
| 2026-05-05 08:11 | 53.53070 | -5.23191 | 31821 ft | 466 kts | 91° |
| 2026-05-05 08:11 | 53.52941 | -5.17847 | 31324 ft | 460 kts | 91° |
| 2026-05-05 08:11 | 53.52805 | -5.12488 | 30823 ft | 454 kts | 91° |
| 2026-05-05 08:11 | 53.52641 | -5.07208 | 30317 ft | 450 kts | 92° |
| 2026-05-05 08:12 | 53.52463 | -5.01985 | 29816 ft | 445 kts | 92° |
| 2026-05-05 08:12 | 53.52286 | -4.96803 | 29311 ft | 441 kts | 92° |
| 2026-05-05 08:12 | 53.52113 | -4.91672 | 28809 ft | 437 kts | 92° |
| 2026-05-05 08:12 | 53.51944 | -4.86654 | 28315 ft | 434 kts | 93° |
| 2026-05-05 08:13 | 53.51650 | -4.81618 | 27816 ft | 432 kts | 97° |
| 2026-05-05 08:13 | 53.51247 | -4.76614 | 27324 ft | 430 kts | 97° |
| 2026-05-05 08:13 | 53.50833 | -4.71645 | 26819 ft | 428 kts | 97° |
| 2026-05-05 08:13 | 53.50417 | -4.66698 | 26315 ft | 427 kts | 97° |
| 2026-05-05 08:14 | 53.50004 | -4.61773 | 25826 ft | 425 kts | 97° |
| 2026-05-05 08:14 | 53.49594 | -4.56841 | 25327 ft | 424 kts | 97° |
| 2026-05-05 08:14 | 53.49187 | -4.51938 | 24863 ft | 423 kts | 97° |
| 2026-05-05 08:14 | 53.48783 | -4.47072 | 24460 ft | 419 kts | 97° |
| 2026-05-05 08:15 | 53.48386 | -4.42305 | 24059 ft | 416 kts | 98° |
| 2026-05-05 08:15 | 53.47985 | -4.37506 | 23658 ft | 413 kts | 98° |
| 2026-05-05 08:15 | 53.47585 | -4.32740 | 23258 ft | 411 kts | 98° |
| 2026-05-05 08:15 | 53.47185 | -4.28002 | 22860 ft | 408 kts | 98° |
| 2026-05-05 08:16 | 53.46786 | -4.23292 | 22458 ft | 407 kts | 98° |
| 2026-05-05 08:16 | 53.46384 | -4.18588 | 22060 ft | 406 kts | 98° |
| 2026-05-05 08:16 | 53.45981 | -4.13904 | 21659 ft | 404 kts | 98° |
| 2026-05-05 08:16 | 53.45577 | -4.09223 | 21259 ft | 403 kts | 98° |
| 2026-05-05 08:17 | 53.45176 | -4.04578 | 20860 ft | 402 kts | 98° |
| 2026-05-05 08:17 | 53.44779 | -3.99996 | 20466 ft | 400 kts | 98° |
| 2026-05-05 08:17 | 53.44378 | -3.95382 | 20068 ft | 398 kts | 98° |
| 2026-05-05 08:17 | 53.43974 | -3.90778 | 19667 ft | 397 kts | 98° |
| 2026-05-05 08:18 | 53.43571 | -3.86208 | 19270 ft | 395 kts | 98° |
| 2026-05-05 08:18 | 53.43166 | -3.81644 | 18870 ft | 394 kts | 98° |
| 2026-05-05 08:18 | 53.42763 | -3.77104 | 18472 ft | 392 kts | 99° |
| 2026-05-05 08:18 | 53.42366 | -3.72658 | 18075 ft | 390 kts | 99° |
| 2026-05-05 08:19 | 53.41964 | -3.68162 | 17675 ft | 388 kts | 99° |
| 2026-05-05 08:19 | 53.41562 | -3.63694 | 17275 ft | 386 kts | 99° |
| 2026-05-05 08:19 | 53.41183 | -3.59269 | 16868 ft | 381 kts | 97° |
| 2026-05-05 08:19 | 53.40947 | -3.54873 | 16465 ft | 376 kts | 94° |
| 2026-05-05 08:20 | 53.40783 | -3.50526 | 16067 ft | 371 kts | 94° |
| 2026-05-05 08:20 | 53.40627 | -3.46217 | 15661 ft | 367 kts | 94° |
| 2026-05-05 08:20 | 53.40464 | -3.41956 | 15256 ft | 364 kts | 94° |
| 2026-05-05 08:20 | 53.40289 | -3.37741 | 14852 ft | 360 kts | 94° |
| 2026-05-05 08:21 | 53.40170 | -3.34965 | 14588 ft | 358 kts | 94° |
| 2026-05-05 08:21 | 53.39987 | -3.30822 | 14185 ft | 354 kts | 94° |
| 2026-05-05 08:21 | 53.39804 | -3.26718 | 13781 ft | 351 kts | 94° |
| 2026-05-05 08:21 | 53.39619 | -3.22654 | 13379 ft | 348 kts | 95° |
| 2026-05-05 08:22 | 53.39433 | -3.18624 | 12978 ft | 345 kts | 95° |
| 2026-05-05 08:22 | 53.39337 | -3.14677 | 12557 ft | 336 kts | 84° |
| 2026-05-05 08:22 | 53.39989 | -3.10951 | 12139 ft | 329 kts | 60° |
| 2026-05-05 08:22 | 53.41136 | -3.07710 | 11761 ft | 322 kts | 58° |
| 2026-05-05 08:23 | 53.42288 | -3.04467 | 11352 ft | 321 kts | 58° |
| 2026-05-05 08:23 | 53.43436 | -3.01187 | 10956 ft | 320 kts | 58° |
| 2026-05-05 08:23 | 53.44539 | -2.98025 | 10566 ft | 318 kts | 59° |
| 2026-05-05 08:23 | 53.45639 | -2.94860 | 10175 ft | 316 kts | 59° |
| 2026-05-05 08:24 | 53.46751 | -2.91649 | 9756 ft | 308 kts | 59° |
| 2026-05-05 08:24 | 53.47792 | -2.88639 | 9340 ft | 295 kts | 59° |
| 2026-05-05 08:24 | 53.48800 | -2.85718 | 8920 ft | 284 kts | 59° |
| 2026-05-05 08:24 | 53.49772 | -2.82899 | 8511 ft | 277 kts | 59° |
| 2026-05-05 08:25 | 53.50741 | -2.80085 | 8126 ft | 279 kts | 59° |
| 2026-05-05 08:25 | 53.51714 | -2.77251 | 7736 ft | 281 kts | 59° |
| 2026-05-05 08:25 | 53.52694 | -2.74396 | 7345 ft | 282 kts | 59° |
| 2026-05-05 08:25 | 53.53555 | -2.71476 | 7047 ft | 273 kts | 75° |
| 2026-05-05 08:26 | 53.53817 | -2.68412 | 7048 ft | 260 kts | 85° |
| 2026-05-05 08:26 | 53.53969 | -2.65390 | 7037 ft | 257 kts | 85° |
| 2026-05-05 08:26 | 53.54127 | -2.62391 | 7042 ft | 257 kts | 85° |
| 2026-05-05 08:26 | 53.54284 | -2.59384 | 7050 ft | 259 kts | 85° |
| 2026-05-05 08:27 | 53.54443 | -2.56366 | 7051 ft | 260 kts | 85° |
| 2026-05-05 08:27 | 53.54605 | -2.53332 | 7051 ft | 260 kts | 85° |
| 2026-05-05 08:27 | 53.54765 | -2.50339 | 6935 ft | 256 kts | 85° |
| 2026-05-05 08:27 | 53.54925 | -2.47355 | 6676 ft | 254 kts | 85° |
| 2026-05-05 08:28 | 53.55081 | -2.44455 | 6465 ft | 250 kts | 85° |
| 2026-05-05 08:28 | 53.55239 | -2.41513 | 6252 ft | 246 kts | 85° |
| 2026-05-05 08:28 | 53.55391 | -2.38720 | 6051 ft | 243 kts | 85° |
| 2026-05-05 08:28 | 53.55546 | -2.35899 | 5850 ft | 241 kts | 85° |
| 2026-05-05 08:29 | 53.55704 | -2.33090 | 5646 ft | 241 kts | 85° |
| 2026-05-05 08:29 | 53.55855 | -2.30309 | 5436 ft | 238 kts | 85° |
| 2026-05-05 08:29 | 53.56012 | -2.27532 | 5236 ft | 238 kts | 84° |
| 2026-05-05 08:30 | 53.56302 | -2.22048 | 5029 ft | 234 kts | 85° |
| 2026-05-05 08:30 | 53.56437 | -2.19287 | 4868 ft | 240 kts | 85° |
| 2026-05-05 08:30 | 53.56378 | -2.16521 | 4667 ft | 240 kts | 98° |
| 2026-05-05 08:30 | 53.56098 | -2.13770 | 4471 ft | 236 kts | 100° |
| 2026-05-05 08:31 | 53.55797 | -2.11072 | 4270 ft | 231 kts | 101° |
| 2026-05-05 08:31 | 53.55483 | -2.08485 | 4142 ft | 219 kts | 107° |
| 2026-05-05 08:31 | 53.54867 | -2.06194 | 3923 ft | 216 kts | 118° |
| 2026-05-05 08:31 | 53.54136 | -2.04013 | 3731 ft | 213 kts | 120° |
| 2026-05-05 08:32 | 53.53401 | -2.01885 | 3639 ft | 208 kts | 124° |
| 2026-05-05 08:32 | 53.52322 | -2.00292 | 3599 ft | 210 kts | 158° |
| 2026-05-05 08:32 | 53.50922 | -1.99696 | 3594 ft | 206 kts | 171° |
| 2026-05-05 08:32 | 53.49530 | -1.99680 | 3585 ft | 198 kts | 199° |
| 2026-05-05 08:33 | 53.48408 | -2.00967 | 3604 ft | 198 kts | 226° |
| 2026-05-05 08:33 | 53.47474 | -2.02626 | 3580 ft | 193 kts | 229° |
| 2026-05-05 08:33 | 53.46612 | -2.04318 | 3474 ft | 190 kts | 231° |
| 2026-05-05 08:33 | 53.45796 | -2.05993 | 3244 ft | 187 kts | 232° |
| 2026-05-05 08:34 | 53.44977 | -2.07688 | 2996 ft | 186 kts | 232° |
| 2026-05-05 08:34 | 53.44158 | -2.09384 | 2744 ft | 187 kts | 232° |
| 2026-05-05 08:34 | 53.43340 | -2.11075 | 2493 ft | 187 kts | 232° |
| 2026-05-05 08:34 | 53.42527 | -2.12756 | 2245 ft | 182 kts | 232° |
| 2026-05-05 08:35 | 53.41759 | -2.14340 | 1995 ft | 165 kts | 232° |
| 2026-05-05 08:35 | 53.41075 | -2.15757 | 1802 ft | 147 kts | 233° |
| 2026-05-05 08:35 | 53.40446 | -2.17054 | 1622 ft | 141 kts | 233° |
| 2026-05-05 08:35 | 53.39827 | -2.18330 | 1431 ft | 144 kts | 233° |
| 2026-05-05 08:36 | 53.39195 | -2.19636 | 1253 ft | 144 kts | 233° |
| 2026-05-05 08:36 | 53.38626 | -2.20807 | 1067 ft | 143 kts | 232° |
| 2026-05-05 08:36 | 53.37999 | -2.22101 | 870 ft | 142 kts | 233° |
| 2026-05-05 08:36 | 53.37378 | -2.23366 | 679 ft | 140 kts | 233° |
| 2026-05-05 08:37 | 53.36767 | -2.24635 | 506 ft | 141 kts | 233° |
| 2026-05-05 08:37 | 53.36148 | -2.25903 | 315 ft | 138 kts | 232° |
| 2026-05-05 08:37 | 53.35585 | -2.27071 | 261 ft | 114 kts | 230° |
| 2026-05-05 08:37 | 53.35205 | -2.27856 | 242 ft | 54 kts | 230° |
| 2026-05-05 08:38 | 53.35091 | -2.28128 | 237 ft | 17 kts | 282° |
| 2026-05-05 08:38 | 53.35182 | -2.28198 | 235 ft | 10 kts | 3° |
| 2026-05-05 08:38 | 53.35252 | -2.28190 | 236 ft | 10 kts | 4° |
| 2026-05-05 08:38 | 53.35323 | -2.28178 | 238 ft | 10 kts | 6° |
| 2026-05-05 08:39 | 53.35393 | -2.28164 | 240 ft | 10 kts | 7° |
| 2026-05-05 08:39 | 53.35465 | -2.28144 | 239 ft | 12 kts | 17° |
| 2026-05-05 08:39 | 53.35536 | -2.28078 | 239 ft | 12 kts | 41° |
| 2026-05-05 08:39 | 53.35589 | -2.27974 | 243 ft | 12 kts | 51° |
| 2026-05-05 08:40 | 53.35652 | -2.27891 | 246 ft | 12 kts | 14° |
| 2026-05-05 08:40 | 53.35733 | -2.27876 | 251 ft | 12 kts | 6° |
| 2026-05-05 08:40 | 53.35814 | -2.27862 | 255 ft | 12 kts | 5° |
| 2026-05-05 08:40 | 53.35895 | -2.27849 | 259 ft | 12 kts | 5° |
| 2026-05-05 08:41 | 53.35974 | -2.27877 | 260 ft | 12 kts | 327° |
| 2026-05-05 08:41 | 53.36036 | -2.27966 | 259 ft | 12 kts | 319° |
| 2026-05-05 08:41 | 53.36097 | -2.28056 | 259 ft | 12 kts | 319° |
| 2026-05-05 08:41 | 53.36158 | -2.28152 | 259 ft | 12 kts | 315° |
| 2026-05-05 08:42 | 53.36214 | -2.28249 | 259 ft | 12 kts | 314° |
| 2026-05-05 08:42 | 53.36271 | -2.28348 | 259 ft | 12 kts | 314° |
| 2026-05-05 08:42 | 53.36331 | -2.28445 | 259 ft | 12 kts | 323° |
| 2026-05-05 08:42 | 53.36407 | -2.28492 | 259 ft | 12 kts | 342° |
| 2026-05-05 08:43 | 53.36471 | -2.28575 | 259 ft | 12 kts | 313° |
| 2026-05-05 08:43 | 53.36528 | -2.28672 | 259 ft | 12 kts | 315° |
| 2026-05-05 08:43 | 53.36586 | -2.28768 | 259 ft | 11 kts | 315° |
| 2026-05-05 08:43 | 53.36644 | -2.28758 | 259 ft | 10 kts | 44° |
| 2026-05-05 08:44 | 53.36691 | -2.28683 | 259 ft | 8 kts | 44° |
| 2026-05-05 08:44 | 53.36692 | -2.28616 | 259 ft | 5 kts | 133° |
| 2026-05-05 08:44 | 53.36670 | -2.28577 | 259 ft | 4 kts | 134° |
| 2026-05-05 08:44 | 53.36655 | -2.28551 | 259 ft | 2 kts | 135° |
| 2026-05-05 08:45 | 53.36648 | -2.28540 | 259 ft | 0 kts | 134° |